This is the latest recevied weather packets stored in our database for station/object DOUGLAS. If no packets are shown the sender has not sent any weather packets the latest 10 day(s).
| Time | Temp. | Humidity | Pressure | Rain* | Wind** | Luminosity | Snow |
|---|---|---|---|---|---|---|---|
| 1777601403 | 12.78° C | 90% | 0 hPa | - | - | - | - |
| 1777600804 | 13.33° C | 88% | 0 hPa | - | - | - | - |
| 1777600203 | 13.89° C | 85% | 0 hPa | - | - | - | - |
| 1777599603 | 14.44° C | 81% | 0 hPa | - | - | - | - |
| 1777599003 | 15° C | 79% | 0 hPa | - | - | - | - |
| 1777598403 | 15.56° C | 72% | 0 hPa | - | - | - | - |
| 1777597803 | 16.67° C | 68% | 0 hPa | - | - | - | - |
| 1777597204 | 16.11° C | 68% | 0 hPa | - | - | - | - |
| 1777596603 | 17.22° C | 64% | 0 hPa | - | - | - | - |
| 1777596003 | 17.22° C | 65% | 0 hPa | - | - | - | - |
| 1777595403 | 17.78° C | 61% | 0 hPa | - | - | - | - |
| 1777594802 | 17.78° C | 60% | 0 hPa | - | - | - | - |
| 1777594203 | 18.33° C | 56% | 0 hPa | - | - | - | - |
| 1777593603 | 19.44° C | 52% | 0 hPa | - | - | - | - |
| 1777593004 | 18.89° C | 52% | 0 hPa | - | - | - | - |
| 1777592404 | 18.89° C | 51% | 0 hPa | - | - | - | - |
| 1777591803 | 18.89° C | 53% | 0 hPa | - | - | - | - |
| 1777591202 | 18.89° C | 55% | 0 hPa | - | - | - | - |
| 1777590603 | 19.44° C | 52% | 0 hPa | - | - | - | - |
| 1777590004 | 20.56° C | 49% | 0 hPa | - | - | - | - |
| 1777589403 | 21.11° C | 48% | 0 hPa | - | - | - | - |
| 1777588803 | 20.56° C | 47% | 0 hPa | - | - | - | - |
| 1777588203 | 20.56° C | 49% | 0 hPa | - | - | - | - |
| 1777587602 | 23.89° C | 30% | 0 hPa | - | - | - | - |
| 1777587003 | 23.89° C | 30% | 0 hPa | - | - | - | - |
* Rain since midnight (hover to see other rain measurements)
** Current wind speed in m/s (hover to see current wind gust speed)